EVA851 VHHH-RCTP
Flight info
| Callsign | EVA851 |
|---|---|
| Flight time | N/A |
| Altitude | 35000 |
| Route | DALOL V631 ENVAR M750 EXTRA/N0427F290 M750 TONGA TONGA1A |
| Aircraft | A20N/M-SDE2E3FGHIRWXY/LB1 |
Departure
| Time | 2026-05-07 04:02 |
|---|---|
| Airport | Hong Kong International Airport (VHHH) |
Arrival
| Time | N/A |
|---|---|
| Airport | Taiwan Taoyuan International Airport (RCTP) |
| Time | Latitude | Longitude | Altitude | Speed | Heading |
|---|---|---|---|---|---|
| 2026-05-07 03:27 | 22.30929 | 113.92630 | 35 ft | 0 kts | 291° |
| 2026-05-07 03:45 | 22.30929 | 113.92632 | 35 ft | 1 kts | 291° |
| 2026-05-07 03:45 | 22.30927 | 113.92637 | 35 ft | 1 kts | 291° |
| 2026-05-07 03:45 | 22.30924 | 113.92645 | 35 ft | 1 kts | 291° |
| 2026-05-07 03:45 | 22.30919 | 113.92658 | 34 ft | 2 kts | 291° |
| 2026-05-07 03:46 | 22.30913 | 113.92671 | 33 ft | 2 kts | 302° |
| 2026-05-07 03:46 | 22.30910 | 113.92677 | 33 ft | 2 kts | 304° |
| 2026-05-07 03:46 | 22.30901 | 113.92691 | 33 ft | 2 kts | 295° |
| 2026-05-07 03:46 | 22.30895 | 113.92707 | 35 ft | 2 kts | 289° |
| 2026-05-07 03:47 | 22.30892 | 113.92724 | 35 ft | 2 kts | 271° |
| 2026-05-07 03:47 | 22.30893 | 113.92740 | 35 ft | 2 kts | 251° |
| 2026-05-07 03:47 | 22.30900 | 113.92755 | 32 ft | 2 kts | 216° |
| 2026-05-07 03:47 | 22.30905 | 113.92759 | 33 ft | 1 kts | 198° |
| 2026-05-07 03:48 | 22.30912 | 113.92761 | 34 ft | 1 kts | 204° |
| 2026-05-07 03:48 | 22.30916 | 113.92764 | 34 ft | 0 kts | 207° |
| 2026-05-07 03:51 | 22.30908 | 113.92759 | 34 ft | 4 kts | 207° |
| 2026-05-07 03:51 | 22.30860 | 113.92731 | 35 ft | 11 kts | 216° |
| 2026-05-07 03:52 | 22.30817 | 113.92653 | 34 ft | 0 kts | 248° |
| 2026-05-07 03:52 | 22.30813 | 113.92641 | 35 ft | 5 kts | 249° |
| 2026-05-07 03:52 | 22.30794 | 113.92582 | 34 ft | 12 kts | 251° |
| 2026-05-07 03:53 | 22.30760 | 113.92473 | 35 ft | 18 kts | 251° |
| 2026-05-07 03:53 | 22.30741 | 113.92367 | 36 ft | 13 kts | 290° |
| 2026-05-07 03:53 | 22.30826 | 113.92320 | 35 ft | 17 kts | 340° |
| 2026-05-07 03:53 | 22.30953 | 113.92272 | 34 ft | 22 kts | 341° |
| 2026-05-07 03:54 | 22.31115 | 113.92215 | 33 ft | 27 kts | 336° |
| 2026-05-07 03:54 | 22.31282 | 113.92153 | 32 ft | 27 kts | 343° |
| 2026-05-07 03:54 | 22.31458 | 113.92086 | 31 ft | 27 kts | 342° |
| 2026-05-07 03:54 | 22.31599 | 113.92022 | 31 ft | 16 kts | 316° |
| 2026-05-07 03:55 | 22.31586 | 113.91902 | 30 ft | 20 kts | 251° |
| 2026-05-07 03:55 | 22.31534 | 113.91744 | 30 ft | 25 kts | 251° |
| 2026-05-07 03:55 | 22.31469 | 113.91543 | 31 ft | 30 kts | 251° |
| 2026-05-07 03:55 | 22.31397 | 113.91316 | 32 ft | 30 kts | 251° |
| 2026-05-07 03:56 | 22.31335 | 113.91120 | 32 ft | 30 kts | 251° |
| 2026-05-07 03:56 | 22.31273 | 113.90925 | 31 ft | 6 kts | 251° |
| 2026-05-07 03:56 | 22.31267 | 113.90906 | 30 ft | 6 kts | 251° |
| 2026-05-07 03:56 | 22.31261 | 113.90889 | 31 ft | 5 kts | 251° |
| 2026-05-07 03:57 | 22.31243 | 113.90830 | 31 ft | 12 kts | 250° |
| 2026-05-07 03:57 | 22.31207 | 113.90723 | 30 ft | 19 kts | 251° |
| 2026-05-07 03:57 | 22.31159 | 113.90569 | 31 ft | 25 kts | 251° |
| 2026-05-07 03:57 | 22.31095 | 113.90376 | 31 ft | 30 kts | 251° |
| 2026-05-07 03:58 | 22.31053 | 113.90250 | 31 ft | 1 kts | 250° |
| 2026-05-07 03:58 | 22.31043 | 113.90218 | 31 ft | 8 kts | 250° |
| 2026-05-07 03:58 | 22.31018 | 113.90140 | 31 ft | 14 kts | 251° |
| 2026-05-07 03:58 | 22.30978 | 113.90014 | 30 ft | 21 kts | 249° |
| 2026-05-07 03:59 | 22.30960 | 113.89959 | 31 ft | 0 kts | 252° |
| 2026-05-07 03:59 | 22.30954 | 113.89939 | 31 ft | 7 kts | 252° |
| 2026-05-07 03:59 | 22.30929 | 113.89858 | 31 ft | 9 kts | 248° |
| 2026-05-07 04:00 | 22.30928 | 113.89855 | 31 ft | 0 kts | 248° |
| 2026-05-07 04:00 | 22.30926 | 113.89850 | 31 ft | 4 kts | 246° |
| 2026-05-07 04:00 | 22.30927 | 113.89797 | 30 ft | 8 kts | 313° |
| 2026-05-07 04:00 | 22.31003 | 113.89768 | 31 ft | 18 kts | 339° |
| 2026-05-07 04:01 | 22.31085 | 113.89777 | 30 ft | 0 kts | 51° |
| 2026-05-07 04:01 | 22.31091 | 113.89793 | 30 ft | 0 kts | 67° |
| 2026-05-07 04:01 | 22.31094 | 113.89802 | 30 ft | 6 kts | 67° |
| 2026-05-07 04:02 | 22.31179 | 113.90070 | 31 ft | 82 kts | 71° |
| 2026-05-07 04:02 | 22.31456 | 113.90928 | 33 ft | 154 kts | 70° |
| 2026-05-07 04:02 | 22.31841 | 113.92111 | 514 ft | 177 kts | 71° |
| 2026-05-07 04:02 | 22.32249 | 113.93367 | 1345 ft | 178 kts | 72° |
| 2026-05-07 04:03 | 22.32663 | 113.94634 | 2451 ft | 186 kts | 72° |
| 2026-05-07 04:03 | 22.33116 | 113.96035 | 3262 ft | 210 kts | 72° |
| 2026-05-07 04:03 | 22.33635 | 113.97603 | 4031 ft | 234 kts | 68° |
| 2026-05-07 04:03 | 22.34529 | 113.99182 | 4738 ft | 254 kts | 56° |
| 2026-05-07 04:04 | 22.35549 | 114.00778 | 5221 ft | 262 kts | 56° |
| 2026-05-07 04:04 | 22.36589 | 114.02413 | 5046 ft | 265 kts | 56° |
| 2026-05-07 04:04 | 22.37607 | 114.04010 | 4993 ft | 249 kts | 56° |
| 2026-05-07 04:04 | 22.38562 | 114.05503 | 4998 ft | 239 kts | 56° |
| 2026-05-07 04:05 | 22.39533 | 114.07003 | 4996 ft | 246 kts | 53° |
| 2026-05-07 04:05 | 22.40433 | 114.08558 | 4995 ft | 243 kts | 72° |
| 2026-05-07 04:05 | 22.40567 | 114.10323 | 4979 ft | 241 kts | 103° |
| 2026-05-07 04:05 | 22.40028 | 114.12031 | 4981 ft | 240 kts | 113° |
| 2026-05-07 04:06 | 22.39426 | 114.13718 | 4978 ft | 240 kts | 112° |
| 2026-05-07 04:06 | 22.38824 | 114.15409 | 4984 ft | 242 kts | 112° |
| 2026-05-07 04:06 | 22.38225 | 114.17094 | 4984 ft | 241 kts | 112° |
| 2026-05-07 04:06 | 22.37626 | 114.18786 | 4988 ft | 241 kts | 112° |
| 2026-05-07 04:07 | 22.37026 | 114.20492 | 5214 ft | 245 kts | 113° |
| 2026-05-07 04:07 | 22.36416 | 114.22230 | 5970 ft | 248 kts | 112° |
| 2026-05-07 04:07 | 22.35791 | 114.23969 | 7181 ft | 251 kts | 115° |
| 2026-05-07 04:07 | 22.35074 | 114.25698 | 7965 ft | 255 kts | 117° |
| 2026-05-07 04:08 | 22.34332 | 114.27442 | 8441 ft | 257 kts | 117° |